Portada
METAR-TAF:

METAR-TAF

Aeroports :

Magnitogorsk, Rússia

latitud: 53-23-36N, longitud: 058-45-24E, altitud: 436 m

Observació

L'informe es va fer fa 31 minuts, a les 18:30 UTC
Vent 8 kt del Est
Temperatura -2°C
Humitat 86%
Pressió 1022 hPa
Visibilitat: 6000 m
Cel cobert a una alçada de 1800 ft

METAR: USCM 181830Z 09004MPS 6000 OVC018 M02/M04 Q1022 R36/090060 TEMPO 1000 SN BR VV003 RMK QFE728

Hora: 00:01 (19:01 UTC)

Pronòstic

L'informe es va fer fa 2 hores i 1 minuts, a les 17:00 UTC
Pronòstic vàlid del 18 a les 18 UTC al 19 a les 03 UTC
Vent 6 kt del Nord/Nord-Est amb ràfegues de 16 kt
Visibilitat: 3100 m
Cel ennuvolat a una alçada de 1100 ft, Cumulonimbus.
xàfecs de neu
Temporalment
l' 18 a les 18 UTC al 19 a les 03 UTC
Vent 10 kt del Nord-Est amb ràfegues de 23 kt
Visibilitat: 1100 m
a una alçada de 300 ft
xàfecs de neu, torb alta de neu

TAF: USCM 181700Z 1818/1903 03003G08MPS 3100 -SHSN BKN011CB TEMPO 1818/1903 05005G12MPS 1100 SHSN BLSN VV003

Observacions i pronòstics meteorològics de més de 4000 aeroports (METAR i TAF).

Les estacions disponibles són els punts grocs i vermells al mapa.

Posi el ratolí al punt desitjat per veure el nom de l'estació.

Feu clic per veure les observacions i els pronòstics meteorològics.

Per canviar el mapa: feu clic els botons verds amb una creu de color negre per apropar; al botó verd amb un guió per allunyar la imatge; o en les fletxes verdes per a mapes adjacents.


METAR-TAF: